createdAt,value
2023-09-29T00:03:05.762Z,100960.22
2023-09-29T00:06:20.907Z,100965.13
2023-09-29T00:09:29.654Z,100959.72
2023-09-29T00:12:45.714Z,100954.63
2023-09-29T00:15:56.747Z,100940.44
2023-09-29T00:19:05.508Z,100953.34
2023-09-29T00:22:20.658Z,100961.31
2023-09-29T00:25:29.892Z,100960.81
2023-09-29T00:28:38.677Z,100961.75
2023-09-29T00:31:55.657Z,100950.88
2023-09-29T00:34:58.742Z,100957.53
2023-09-29T00:38:13.648Z,100953.72
2023-09-29T00:41:29.037Z,100963.13
2023-09-29T00:44:43.668Z,100953.91
2023-09-29T00:48:00.726Z,100957.69
2023-09-29T00:51:15.678Z,100955.00
2023-09-29T00:54:24.677Z,100957.22
2023-09-29T00:57:34.467Z,100955.63
2023-09-29T01:00:50.679Z,100954.03
2023-09-29T01:03:59.909Z,100952.94
2023-09-29T01:07:15.026Z,100950.50
2023-09-29T01:10:30.711Z,100944.00
2023-09-29T01:13:45.700Z,100950.97
2023-09-29T01:16:47.795Z,100948.91
2023-09-29T01:20:02.697Z,100947.59
2023-09-29T01:23:05.929Z,100943.75
2023-09-29T01:26:20.698Z,100944.50
2023-09-29T01:29:29.472Z,100940.06
2023-09-29T01:32:45.763Z,100940.66
2023-09-29T01:35:54.702Z,100946.69
2023-09-29T01:39:09.737Z,100951.13
2023-09-29T01:42:24.691Z,100940.31
2023-09-29T01:45:39.738Z,100943.66
2023-09-29T01:48:48.682Z,100941.56
2023-09-29T01:52:03.707Z,100944.59
2023-09-29T01:55:06.386Z,100934.03
2023-09-29T01:58:21.710Z,100939.28
2023-09-29T02:01:30.611Z,100948.00
2023-09-29T02:04:45.716Z,100947.09
2023-09-29T02:08:07.879Z,100950.41
2023-09-29T02:11:16.711Z,100950.72
2023-09-29T02:14:25.360Z,100947.22
2023-09-29T02:17:33.752Z,100943.56
2023-09-29T02:20:48.887Z,100941.19
2023-09-29T02:23:50.932Z,100940.81
2023-09-29T02:27:05.740Z,100935.91
2023-09-29T02:30:08.675Z,100934.31
2023-09-29T02:33:23.793Z,100938.87
2023-09-29T02:36:32.493Z,100939.44
2023-09-29T02:39:40.711Z,100948.06
2023-09-29T02:42:49.506Z,100949.78
2023-09-29T02:45:57.686Z,100946.88
2023-09-29T02:49:12.687Z,100955.28
2023-09-29T02:52:14.721Z,100944.09
2023-09-29T02:55:32.623Z,100946.31
2023-09-29T02:58:37.944Z,100939.56
2023-09-29T03:01:52.673Z,100942.25
2023-09-29T03:05:01.725Z,100945.94
2023-09-29T03:08:23.688Z,100948.31
2023-09-29T03:11:38.726Z,100939.13
2023-09-29T03:14:47.720Z,100937.84
2023-09-29T03:18:02.781Z,100945.13
2023-09-29T03:21:11.513Z,100942.75
2023-09-29T03:24:29.296Z,100947.94
2023-09-29T03:27:39.555Z,100946.59
2023-09-29T03:30:47.736Z,100945.00
2023-09-29T03:33:56.576Z,100934.47
2023-09-29T03:37:04.699Z,100944.78
2023-09-29T03:40:20.705Z,100943.50
2023-09-29T03:43:29.532Z,100946.03
2023-09-29T03:46:44.769Z,100951.91
2023-09-29T03:49:59.733Z,100946.44
2023-09-29T03:53:08.637Z,100944.41
2023-09-29T03:56:17.721Z,100944.66
2023-09-29T03:59:32.722Z,100953.62
2023-09-29T04:02:41.878Z,100951.91
2023-09-29T04:05:56.763Z,100956.22
2023-09-29T04:08:59.039Z,100957.44
2023-09-29T04:12:13.739Z,100960.38
2023-09-29T04:15:22.257Z,100952.75
2023-09-29T04:18:30.993Z,100966.56
2023-09-29T04:21:39.924Z,100949.97
2023-09-29T04:24:54.714Z,100960.47
2023-09-29T04:28:03.738Z,100957.88
2023-09-29T04:31:12.452Z,100955.47
2023-09-29T04:34:20.722Z,100959.47
2023-09-29T04:37:35.695Z,100963.38
2023-09-29T04:40:44.471Z,100967.47
2023-09-29T04:43:52.722Z,100969.66
2023-09-29T04:47:07.741Z,100966.19
2023-09-29T04:50:22.725Z,100975.38
2023-09-29T04:53:31.757Z,100973.28
2023-09-29T04:56:46.788Z,100978.69
2023-09-29T04:59:55.459Z,100985.38
2023-09-29T05:03:03.859Z,100975.28
2023-09-29T05:06:25.732Z,100977.28
2023-09-29T05:09:36.368Z,100986.28
2023-09-29T05:12:44.787Z,100997.00
2023-09-29T05:15:59.720Z,100992.87
2023-09-29T05:19:08.862Z,100985.59
2023-09-29T05:22:17.771Z,100989.28
2023-09-29T05:25:32.714Z,100980.97
2023-09-29T05:28:47.716Z,100996.50
2023-09-29T05:31:56.549Z,101000.59
2023-09-29T05:35:12.722Z,100998.78
2023-09-29T05:38:21.534Z,100999.19
2023-09-29T05:41:36.808Z,100994.16
2023-09-29T05:44:45.378Z,100995.88
2023-09-29T05:47:54.124Z,100999.47
2023-09-29T05:51:21.339Z,100997.75
2023-09-29T05:54:23.476Z,101001.75
2023-09-29T05:57:38.789Z,101008.84
2023-09-29T06:00:47.739Z,101003.84
2023-09-29T06:04:02.895Z,101009.47
2023-09-29T06:07:18.010Z,101004.66
2023-09-29T06:10:33.714Z,101012.97
2023-09-29T06:13:48.784Z,101010.34
2023-09-29T06:16:57.311Z,101014.72
2023-09-29T06:20:05.726Z,101014.47
2023-09-29T06:23:22.731Z,101008.31
2023-09-29T06:26:31.320Z,101009.97
2023-09-29T06:29:39.745Z,101001.53
2023-09-29T06:32:48.317Z,101019.94
2023-09-29T06:36:01.891Z,101010.44
2023-09-29T06:39:16.808Z,101019.22
2023-09-29T06:42:18.947Z,101024.06
2023-09-29T06:45:56.896Z,101026.00
2023-09-29T06:48:55.989Z,101016.16
2023-09-29T06:52:10.796Z,101025.16
2023-09-29T06:55:19.532Z,101019.75
2023-09-29T06:58:27.808Z,101022.69
2023-09-29T07:01:42.778Z,101028.12
2023-09-29T07:04:44.725Z,101038.03
2023-09-29T07:08:06.755Z,101040.94
2023-09-29T07:11:21.784Z,101037.78
2023-09-29T07:14:30.731Z,101045.47
2023-09-29T07:17:45.811Z,101040.34
2023-09-29T07:20:48.053Z,101042.91
2023-09-29T07:24:02.814Z,101047.69
2023-09-29T07:27:13.092Z,101047.94
2023-09-29T07:30:27.911Z,101040.56
2023-09-29T07:33:42.832Z,101048.38
2023-09-29T07:36:57.758Z,101050.69
2023-09-29T07:39:59.938Z,101054.84
2023-09-29T07:43:14.797Z,101051.41
2023-09-29T07:46:23.792Z,101055.62
2023-09-29T07:49:38.768Z,101061.09
2023-09-29T07:52:41.126Z,101056.06
2023-09-29T07:55:55.760Z,101053.84
2023-09-29T07:59:03.759Z,101054.56
2023-09-29T08:02:12.337Z,101062.69
2023-09-29T08:05:20.861Z,101054.22
2023-09-29T08:08:36.785Z,101052.66
2023-09-29T08:11:52.792Z,101062.03
2023-09-29T08:14:54.844Z,101064.69
2023-09-29T08:18:09.901Z,101060.44
2023-09-29T08:21:18.870Z,101055.09
2023-09-29T08:24:27.816Z,101054.72
2023-09-29T08:27:43.762Z,101054.13
2023-09-29T08:30:46.000Z,101057.53
2023-09-29T08:34:00.851Z,101053.22
2023-09-29T08:37:15.783Z,101054.56
2023-09-29T08:40:24.756Z,101051.63
2023-09-29T08:43:43.696Z,101053.09
2023-09-29T08:46:59.628Z,101056.00
2023-09-29T08:50:10.969Z,101048.22
2023-09-29T08:53:26.776Z,101050.47
2023-09-29T08:56:35.898Z,101047.37
2023-09-29T08:59:52.971Z,101051.13
2023-09-29T09:03:07.930Z,101055.53
2023-09-29T09:06:31.820Z,101058.06
2023-09-29T09:09:55.780Z,101052.31
2023-09-29T09:13:12.768Z,101056.03
2023-09-29T09:16:14.974Z,101050.41
2023-09-29T09:19:32.799Z,101049.44
2023-09-29T09:22:46.547Z,101041.66
2023-09-29T09:25:55.826Z,101041.69
2023-09-29T09:29:15.803Z,101042.00
2023-09-29T09:32:28.255Z,101040.13
2023-09-29T09:35:37.860Z,101046.59
2023-09-29T09:38:46.745Z,101038.38
2023-09-29T09:41:58.832Z,101033.44
2023-09-29T09:45:07.872Z,101037.69
2023-09-29T09:48:25.890Z,101038.03
2023-09-29T09:51:40.339Z,101031.62
2023-09-29T09:54:55.807Z,101032.53
2023-09-29T09:58:11.815Z,101034.69
2023-09-29T10:01:19.864Z,101031.09
2023-09-29T10:04:35.856Z,101033.47
2023-09-29T10:07:48.827Z,101025.81
2023-09-29T10:11:18.845Z,101027.22
2023-09-29T10:14:26.810Z,101013.53
2023-09-29T10:17:45.864Z,101020.97
2023-09-29T10:21:00.943Z,101004.06
2023-09-29T10:24:09.836Z,101011.41
2023-09-29T10:27:39.862Z,101008.84
2023-09-29T10:30:50.798Z,101003.97
2023-09-29T10:34:00.083Z,101010.22
2023-09-29T10:37:15.815Z,100994.66
2023-09-29T10:40:34.005Z,101005.09
2023-09-29T10:43:52.816Z,101005.03
2023-09-29T10:46:55.277Z,100996.63
2023-09-29T10:50:14.874Z,100996.72
2023-09-29T10:53:29.822Z,100993.47
2023-09-29T10:56:45.836Z,100980.13
2023-09-29T10:59:55.835Z,100978.34
2023-09-29T11:03:11.931Z,100978.53
2023-09-29T11:06:27.846Z,100979.87
2023-09-29T11:09:43.118Z,100973.25
2023-09-29T11:12:57.854Z,100973.25
2023-09-29T11:16:01.185Z,100966.28
2023-09-29T11:19:20.850Z,100969.16
2023-09-29T11:22:29.687Z,100952.41
2023-09-29T11:25:38.918Z,100951.25
2023-09-29T11:28:55.876Z,100956.09
2023-09-29T11:32:04.898Z,100944.34
2023-09-29T11:35:13.909Z,100941.94
2023-09-29T11:38:28.843Z,100936.50
2023-09-29T11:41:30.670Z,100929.44
2023-09-29T11:44:46.164Z,100930.62
2023-09-29T11:48:00.980Z,100930.09
2023-09-29T11:51:03.052Z,100913.97
2023-09-29T11:54:17.943Z,100922.25
2023-09-29T11:57:26.857Z,100919.06
2023-09-29T12:00:35.855Z,100913.12
2023-09-29T12:03:50.904Z,100917.38
2023-09-29T12:06:53.047Z,100914.69
2023-09-29T12:10:15.862Z,100907.66
2023-09-29T12:13:18.055Z,100900.19
2023-09-29T12:16:32.904Z,100905.56
2023-09-29T12:19:34.764Z,100907.97
2023-09-29T12:22:50.877Z,100893.84
2023-09-29T12:26:00.993Z,100893.88
2023-09-29T12:29:10.918Z,100894.31
2023-09-29T12:32:19.745Z,100889.28
2023-09-29T12:35:27.900Z,100886.91
2023-09-29T12:38:42.970Z,100879.28
2023-09-29T12:41:51.766Z,100878.13
2023-09-29T12:45:06.942Z,100872.53
2023-09-29T12:48:22.060Z,100875.59
2023-09-29T12:51:32.220Z,100869.59
2023-09-29T12:54:50.984Z,100875.59
2023-09-29T12:58:06.340Z,100869.59
2023-09-29T13:01:20.919Z,100862.28
2023-09-29T13:04:30.002Z,100860.50
2023-09-29T13:07:47.887Z,100857.31
2023-09-29T13:11:09.878Z,100857.41
2023-09-29T13:14:11.995Z,100859.75
2023-09-29T13:17:27.038Z,100858.97
2023-09-29T13:20:35.695Z,100854.09
2023-09-29T13:23:51.915Z,100852.19
2023-09-29T13:27:06.883Z,100853.75
2023-09-29T13:30:15.793Z,100855.31
2023-09-29T13:33:24.924Z,100850.06
2023-09-29T13:36:40.005Z,100851.22
2023-09-29T13:39:54.888Z,100842.12
2023-09-29T13:42:57.120Z,100843.72
2023-09-29T13:46:12.930Z,100841.19
2023-09-29T13:49:21.474Z,100839.94
2023-09-29T13:52:29.922Z,100839.94
2023-09-29T13:55:44.903Z,100837.53
2023-09-29T13:58:47.090Z,100831.62
2023-09-29T14:02:01.900Z,100840.09
2023-09-29T14:05:16.894Z,100838.44
2023-09-29T14:08:31.912Z,100834.06
2023-09-29T14:11:40.540Z,100829.84
2023-09-29T14:14:48.953Z,100830.59
2023-09-29T14:17:58.224Z,100830.25
2023-09-29T14:21:12.951Z,100824.41
2023-09-29T14:24:21.564Z,100815.06
2023-09-29T14:27:29.958Z,100815.12
2023-09-29T14:30:38.741Z,100820.94
2023-09-29T14:33:46.948Z,100811.91
2023-09-29T14:37:01.905Z,100805.22
2023-09-29T14:40:04.295Z,100799.44
2023-09-29T14:43:18.955Z,100798.25
2023-09-29T14:46:27.938Z,100793.50
2023-09-29T14:49:42.939Z,100794.25
2023-09-29T14:52:52.194Z,100789.87
2023-09-29T14:56:15.917Z,100792.13
2023-09-29T14:59:31.926Z,100785.75
2023-09-29T15:02:40.503Z,100784.41
2023-09-29T15:05:48.978Z,100783.13
2023-09-29T15:09:10.990Z,100782.16
2023-09-29T15:12:22.511Z,100787.03
2023-09-29T15:15:33.006Z,100772.44
2023-09-29T15:18:52.280Z,100774.66
2023-09-29T15:22:07.934Z,100784.25
2023-09-29T15:25:16.978Z,100779.72
2023-09-29T15:28:31.942Z,100781.06
2023-09-29T15:31:40.976Z,100774.56
2023-09-29T15:34:50.014Z,100770.44
2023-09-29T15:38:04.958Z,100782.28
2023-09-29T15:41:08.173Z,100776.53
2023-09-29T15:44:26.002Z,100774.06
2023-09-29T15:47:34.966Z,100778.81
2023-09-29T15:50:43.963Z,100773.44
2023-09-29T15:53:52.994Z,100774.31
2023-09-29T15:57:08.015Z,100781.94
2023-09-29T16:00:17.142Z,100780.34
2023-09-29T16:03:26.057Z,100777.09
2023-09-29T16:06:47.945Z,100789.81
2023-09-29T16:10:03.979Z,100786.31
2023-09-29T16:13:18.962Z,100789.16
2023-09-29T16:16:34.018Z,100792.66
2023-09-29T16:19:42.832Z,100793.00
2023-09-29T16:22:57.946Z,100796.31
2023-09-29T16:26:05.955Z,100787.41
2023-09-29T16:29:20.975Z,100790.97
2023-09-29T16:32:31.894Z,100796.03
2023-09-29T16:35:47.935Z,100800.81
2023-09-29T16:38:49.838Z,100799.37
2023-09-29T16:42:04.956Z,100795.00
2023-09-29T16:45:07.930Z,100798.88
2023-09-29T16:48:23.059Z,100799.69
2023-09-29T16:51:37.959Z,100798.91
2023-09-29T16:54:46.800Z,100792.31
2023-09-29T16:58:01.995Z,100792.31
2023-09-29T17:01:13.388Z,100799.34
2023-09-29T17:04:28.008Z,100798.19
2023-09-29T17:07:49.970Z,100807.72
2023-09-29T17:10:58.737Z,100800.91
2023-09-29T17:14:13.974Z,100804.94
2023-09-29T17:17:22.894Z,100806.00
2023-09-29T17:20:37.957Z,100810.16
2023-09-29T17:23:40.224Z,100810.69
2023-09-29T17:26:54.955Z,100811.22
2023-09-29T17:30:11.254Z,100812.69
2023-09-29T17:33:13.901Z,100818.84
2023-09-29T17:36:29.348Z,100814.91
2023-09-29T17:39:38.994Z,100815.47
2023-09-29T17:42:55.000Z,100814.28
2023-09-29T17:46:12.992Z,100819.06
2023-09-29T17:49:22.501Z,100823.75
2023-09-29T17:52:32.307Z,100829.06
2023-09-29T17:55:41.230Z,100834.16
2023-09-29T17:58:52.333Z,100826.25
2023-09-29T18:02:08.105Z,100833.00
2023-09-29T18:05:17.919Z,100835.09
2023-09-29T18:08:34.130Z,100835.25
2023-09-29T18:11:50.967Z,100836.53
2023-09-29T18:15:08.334Z,100840.13
2023-09-29T18:18:19.139Z,100839.00
2023-09-29T18:21:29.520Z,100839.00
2023-09-29T18:24:46.069Z,100839.53
2023-09-29T18:27:49.848Z,100827.31
2023-09-29T18:31:07.567Z,100836.41
2023-09-29T18:34:18.457Z,100830.84
2023-09-29T18:37:28.332Z,100840.72
2023-09-29T18:40:37.996Z,100844.09
2023-09-29T18:43:50.087Z,100826.53
2023-09-29T18:47:00.219Z,100828.91
2023-09-29T18:50:10.778Z,100837.72
2023-09-29T18:53:28.624Z,100842.66
2023-09-29T18:56:38.986Z,100841.41
2023-09-29T18:59:57.577Z,100840.28
2023-09-29T19:03:01.826Z,100847.13
2023-09-29T19:06:19.173Z,100852.72
2023-09-29T19:09:30.119Z,100851.13
2023-09-29T19:12:51.486Z,100847.63
2023-09-29T19:16:12.561Z,100841.91
2023-09-29T19:19:23.546Z,100841.28
2023-09-29T19:22:35.518Z,100853.53
2023-09-29T19:25:52.562Z,100843.19
2023-09-29T19:29:11.094Z,100844.47
2023-09-29T19:32:15.792Z,100846.03
2023-09-29T19:35:33.536Z,100838.56
2023-09-29T19:38:51.016Z,100841.41
2023-09-29T19:42:08.076Z,100847.13
2023-09-29T19:45:25.064Z,100849.06
2023-09-29T19:48:35.261Z,100851.31
2023-09-29T19:51:53.588Z,100851.16
2023-09-29T19:55:05.305Z,100854.50
2023-09-29T19:58:16.525Z,100854.50
2023-09-29T20:01:33.136Z,100857.63
2023-09-29T20:04:45.389Z,100860.16
2023-09-29T20:08:04.887Z,100860.44
2023-09-29T20:11:15.776Z,100854.41
2023-09-29T20:14:26.010Z,100857.44
2023-09-29T20:17:42.076Z,100863.50
2023-09-29T20:20:51.379Z,100866.19
2023-09-29T20:24:01.073Z,100861.56
2023-09-29T20:27:10.195Z,100863.94
2023-09-29T20:30:26.089Z,100865.03
2023-09-29T20:33:28.515Z,100860.25
2023-09-29T20:36:43.061Z,100856.09
2023-09-29T20:39:52.072Z,100863.25
2023-09-29T20:43:00.949Z,100859.88
2023-09-29T20:46:17.044Z,100861.16
2023-09-29T20:49:19.463Z,100861.72
2023-09-29T20:52:35.022Z,100860.09
2023-09-29T20:55:44.136Z,100865.31
2023-09-29T20:58:53.036Z,100861.81
2023-09-29T21:02:08.017Z,100862.97
2023-09-29T21:05:16.874Z,100862.50
2023-09-29T21:08:26.069Z,100826.91
2023-09-29T21:11:34.886Z,100869.69
2023-09-29T21:14:50.054Z,100861.41
2023-09-29T21:18:05.115Z,100872.72
2023-09-29T21:21:13.928Z,100869.69
2023-09-29T21:24:29.092Z,100875.91
2023-09-29T21:27:38.036Z,100876.03
2023-09-29T21:30:53.031Z,100881.69
2023-09-29T21:34:02.055Z,100881.59
2023-09-29T21:37:17.046Z,100878.63
2023-09-29T21:40:32.021Z,100876.19
2023-09-29T21:43:40.842Z,100873.22
2023-09-29T21:46:56.029Z,100873.28
2023-09-29T21:50:05.039Z,100870.84
2023-09-29T21:53:20.021Z,100870.47
2023-09-29T21:56:22.182Z,100866.53
2023-09-29T21:59:37.069Z,100865.72
2023-09-29T22:02:46.122Z,100869.38
2023-09-29T22:06:01.081Z,100864.91
2023-09-29T22:09:09.308Z,100857.87
2023-09-29T22:12:24.057Z,100862.31
2023-09-29T22:15:32.974Z,100855.13
2023-09-29T22:18:48.079Z,100850.34
2023-09-29T22:22:03.045Z,100842.16
2023-09-29T22:25:06.789Z,100857.66
2023-09-29T22:28:23.054Z,100856.03
2023-09-29T22:31:25.290Z,100857.66
2023-09-29T22:34:40.055Z,100862.84
2023-09-29T22:37:49.085Z,100859.06
2023-09-29T22:40:57.806Z,100854.75
2023-09-29T22:44:06.076Z,100857.16
2023-09-29T22:47:14.844Z,100861.78
2023-09-29T22:50:24.067Z,100849.94
2023-09-29T22:53:33.107Z,100839.47
2023-09-29T22:56:42.101Z,100840.03
2023-09-29T22:59:50.857Z,100854.41
2023-09-29T23:03:06.165Z,100861.59
2023-09-29T23:06:21.098Z,100856.03
2023-09-29T23:09:36.322Z,100862.84
2023-09-29T23:12:51.033Z,100861.84
2023-09-29T23:15:53.211Z,100867.28
2023-09-29T23:19:08.026Z,100869.25
2023-09-29T23:22:17.065Z,100865.16
2023-09-29T23:25:32.038Z,100870.78
2023-09-29T23:28:41.139Z,100870.28
2023-09-29T23:31:56.056Z,100872.06
2023-09-29T23:34:58.616Z,100871.28
2023-09-29T23:38:14.063Z,100878.38
2023-09-29T23:41:29.050Z,100879.59
2023-09-29T23:44:44.062Z,100872.69
2023-09-29T23:47:53.102Z,100879.88
2023-09-29T23:51:09.159Z,100879.75
2023-09-29T23:54:18.106Z,100879.50
2023-09-29T23:57:34.131Z,100879.59
